首页
METAR-TAF:

METAR-TAF

机场 :

Wausau, 威斯康辛州, 美国

纬度: 44-55-43N, 经度: 089-37-36W, 海拔: 366米

当前天气观测

该预报发布于30分钟前的07:54 UTC
风速10节,风向南转南东
温度 0°C
湿度 80%
气压 1017 hPa
能見度: 11.3公里
阴天层高于10000英尺

METAR: KAUW 170754Z AUTO 16010KT 7SM OVC100 00/M03 A3004 RMK AO2 SLP188 T00001033

时间: 02:24 (08:24 UTC)

预报

该预报发布于3小时和4分钟前的05:20 UTC
预报有效从17日的 06点(UTC)到 18日的 06点(UTC)
风速8节,风向南转南东
能見度: 10公里
散云层高于2000英尺
多云层高于15000英尺
从 17日的 1000点(UTC)
风速7节,风向
能見度: 10公里
多云层高于1500英尺
阴天层高于7000英尺
从 17日的 1300点(UTC)
风速7节,风向
能見度: 2.4公里
阴天层高于500英尺
小雪
从 17日的 1800点(UTC)
风速6节,风向南转西南
能見度: 1.6公里
阴天层高于800英尺
小毛毛雨, 雪
从 18日的 0000点(UTC)
风速4节,风向西
能見度: 10公里
多云层高于700英尺

TAF: KAUW 170520Z 1706/1806 15008KT P6SM SCT020 BKN150 FM171000 17007KT P6SM BKN015 OVC070 FM171300 19007KT 1 1/2SM -SN OVC005 FM171800 21006KT 3SM -DZSN OVC008 FM180000 27004KT P6SM BKN007

超过4000个机场的气象观测和天气预报(METAR&TAF报告)。

可查询的气象台以黄色和红色小点在地图上表示。

将鼠标移到小点上方,可查看气象台名称。

然后点击查看天气观测和预报。

如需切换地图:点击带黑十字的绿色按钮放大地图;点击带横线的绿色按钮缩小地图;或者点击绿色箭头查看邻近地区的地图。


METAR-TAF: